createdAt,value
2023-01-29T00:00:12.354Z,84.33
2023-01-29T00:03:03.085Z,84.21
2023-01-29T00:05:31.131Z,84.11
2023-01-29T00:07:58.980Z,84.21
2023-01-29T00:10:26.937Z,84.20
2023-01-29T00:12:55.199Z,84.17
2023-01-29T00:15:23.530Z,84.20
2023-01-29T00:17:51.371Z,84.26
2023-01-29T00:20:19.462Z,84.17
2023-01-29T00:22:47.522Z,84.23
2023-01-29T00:25:15.465Z,84.23
2023-01-29T00:27:44.743Z,84.14
2023-01-29T00:30:13.230Z,84.07
2023-01-29T00:32:41.261Z,84.02
2023-01-29T00:35:09.766Z,84.02
2023-01-29T00:37:38.113Z,84.08
2023-01-29T00:40:06.393Z,83.92
2023-01-29T00:42:52.854Z,84.06
2023-01-29T00:45:20.719Z,83.95
2023-01-29T00:47:48.604Z,83.97
2023-01-29T00:50:16.830Z,83.96
2023-01-29T00:52:44.869Z,83.84
2023-01-29T00:55:12.917Z,83.97
2023-01-29T00:57:40.938Z,83.80
2023-01-29T01:00:12.717Z,83.79
2023-01-29T01:02:59.268Z,83.64
2023-01-29T01:05:28.315Z,83.63
2023-01-29T01:07:58.142Z,83.55
2023-01-29T01:10:32.225Z,83.46
2023-01-29T01:13:01.934Z,83.50
2023-01-29T01:15:36.933Z,83.55
2023-01-29T01:18:05.372Z,83.48
2023-01-29T01:20:35.812Z,83.67
2023-01-29T01:23:03.963Z,83.62
2023-01-29T01:25:32.059Z,83.50
2023-01-29T01:28:03.160Z,83.42
2023-01-29T01:30:31.052Z,83.34
2023-01-29T01:32:59.805Z,83.30
2023-01-29T01:35:27.868Z,83.18
2023-01-29T01:37:55.708Z,83.15
2023-01-29T01:40:25.859Z,83.03
2023-01-29T01:42:56.936Z,82.99
2023-01-29T01:45:36.094Z,82.99
2023-01-29T01:48:11.374Z,83.09
2023-01-29T01:50:49.573Z,82.99
2023-01-29T01:53:28.756Z,83.05
2023-01-29T01:56:03.823Z,83.06
2023-01-29T01:58:40.830Z,83.04
2023-01-29T02:01:09.865Z,82.98
2023-01-29T02:04:09.184Z,82.87
2023-01-29T02:06:59.560Z,82.92
2023-01-29T02:09:37.854Z,82.84
2023-01-29T02:12:09.004Z,82.78
2023-01-29T02:14:41.687Z,82.62
2023-01-29T02:17:19.463Z,82.68
2023-01-29T02:20:00.460Z,82.57
2023-01-29T02:23:05.846Z,82.56
2023-01-29T02:26:03.282Z,82.49
2023-01-29T02:28:49.030Z,82.45
2023-01-29T02:31:29.202Z,82.27
2023-01-29T02:34:18.482Z,82.44
2023-01-29T02:36:48.999Z,82.43
2023-01-29T02:39:56.072Z,82.39
2023-01-29T02:42:35.858Z,82.36
2023-01-29T02:45:11.533Z,82.24
2023-01-29T02:48:00.610Z,82.19
2023-01-29T02:50:42.728Z,82.17
2023-01-29T02:53:24.185Z,82.22
2023-01-29T02:56:00.104Z,82.22
2023-01-29T02:58:41.455Z,82.28
2023-01-29T03:01:26.600Z,82.14
2023-01-29T03:03:58.972Z,82.19
2023-01-29T03:06:40.736Z,82.00
2023-01-29T03:09:22.721Z,82.13
2023-01-29T03:11:58.837Z,82.14
2023-01-29T03:14:59.490Z,82.00
2023-01-29T03:17:33.853Z,82.10
2023-01-29T03:20:07.471Z,81.92
2023-01-29T03:22:36.276Z,82.01
2023-01-29T03:25:24.069Z,81.90
2023-01-29T03:28:17.680Z,81.89
2023-01-29T03:31:18.989Z,81.89
2023-01-29T03:34:05.261Z,82.00
2023-01-29T03:36:45.265Z,81.78
2023-01-29T03:39:16.215Z,81.76
2023-01-29T03:41:56.729Z,81.58
2023-01-29T03:44:34.125Z,81.60
2023-01-29T03:47:08.171Z,81.58
2023-01-29T03:49:56.516Z,81.48
2023-01-29T03:52:46.702Z,81.57
2023-01-29T03:55:21.019Z,81.52
2023-01-29T03:58:04.943Z,81.43
2023-01-29T04:00:45.123Z,81.23
2023-01-29T04:03:19.364Z,81.15
2023-01-29T04:06:09.577Z,81.10
2023-01-29T04:08:51.154Z,81.04
2023-01-29T04:11:22.263Z,81.01
2023-01-29T04:13:51.376Z,80.96
2023-01-29T04:16:26.744Z,81.20
2023-01-29T04:19:16.377Z,80.95
2023-01-29T04:21:47.496Z,81.09
2023-01-29T04:24:17.018Z,81.21
2023-01-29T04:26:44.778Z,81.09
2023-01-29T04:29:31.955Z,81.13
2023-01-29T04:32:11.075Z,81.05
2023-01-29T04:34:48.280Z,81.12
2023-01-29T04:37:26.402Z,81.20
2023-01-29T04:40:03.512Z,81.12
2023-01-29T04:42:59.031Z,81.02
2023-01-29T04:45:35.900Z,80.88
2023-01-29T04:48:22.172Z,80.84
2023-01-29T04:51:06.479Z,80.82
2023-01-29T04:54:06.511Z,80.81
2023-01-29T04:56:37.377Z,80.66
2023-01-29T04:59:08.949Z,80.69
2023-01-29T05:01:38.852Z,80.76
2023-01-29T05:04:12.033Z,80.64
2023-01-29T05:06:41.492Z,80.73
2023-01-29T05:09:10.101Z,80.74
2023-01-29T05:11:37.918Z,80.64
2023-01-29T05:14:09.939Z,80.70
2023-01-29T05:16:45.126Z,80.68
2023-01-29T05:19:16.027Z,80.55
2023-01-29T05:21:46.918Z,80.69
2023-01-29T05:24:23.288Z,80.58
2023-01-29T05:27:12.133Z,80.50
2023-01-29T05:29:47.485Z,80.46
2023-01-29T05:32:16.021Z,80.18
2023-01-29T05:34:43.894Z,80.16
2023-01-29T05:37:11.756Z,80.18
2023-01-29T05:39:39.568Z,80.19
2023-01-29T05:42:07.541Z,80.18
2023-01-29T05:44:35.326Z,80.26
2023-01-29T05:47:03.153Z,80.25
2023-01-29T05:49:31.017Z,80.03
2023-01-29T05:51:58.855Z,80.03
2023-01-29T05:54:26.681Z,80.15
2023-01-29T05:56:54.475Z,80.20
2023-01-29T05:59:22.421Z,80.30
2023-01-29T06:01:50.222Z,80.22
2023-01-29T06:04:18.141Z,80.18
2023-01-29T06:06:45.983Z,80.01
2023-01-29T06:09:13.903Z,79.98
2023-01-29T06:11:41.796Z,80.00
2023-01-29T06:14:09.651Z,80.00
2023-01-29T06:16:37.477Z,79.98
2023-01-29T06:19:05.353Z,79.97
2023-01-29T06:21:33.181Z,80.13
2023-01-29T06:24:01.035Z,80.00
2023-01-29T06:26:28.879Z,79.96
2023-01-29T06:28:56.703Z,79.98
2023-01-29T06:31:37.871Z,80.10
2023-01-29T06:34:08.420Z,80.13
2023-01-29T06:36:36.369Z,80.21
2023-01-29T06:39:04.708Z,80.15
2023-01-29T06:41:32.627Z,80.08
2023-01-29T06:44:00.555Z,80.05
2023-01-29T06:46:28.697Z,80.12
2023-01-29T06:48:59.459Z,80.06
2023-01-29T06:51:27.450Z,80.04
2023-01-29T06:53:56.176Z,79.93
2023-01-29T06:56:24.315Z,79.98
2023-01-29T06:58:52.142Z,80.20
2023-01-29T07:01:34.746Z,80.38
2023-01-29T07:04:03.744Z,80.31
2023-01-29T07:06:31.902Z,80.29
2023-01-29T07:09:00.001Z,80.36
2023-01-29T07:11:27.778Z,80.48
2023-01-29T07:13:55.599Z,80.64
2023-01-29T07:16:24.225Z,80.71
2023-01-29T07:18:52.225Z,80.57
2023-01-29T07:21:20.078Z,80.62
2023-01-29T07:23:47.899Z,80.60
2023-01-29T07:26:15.726Z,80.60
2023-01-29T07:28:43.599Z,80.50
2023-01-29T07:31:13.630Z,80.45
2023-01-29T07:33:44.253Z,80.42
2023-01-29T07:36:13.190Z,80.28
2023-01-29T07:38:41.245Z,80.34
2023-01-29T07:41:11.259Z,80.44
2023-01-29T07:43:39.318Z,80.34
2023-01-29T07:46:07.617Z,80.31
2023-01-29T07:48:35.926Z,80.43
2023-01-29T07:51:03.853Z,80.35
2023-01-29T07:53:31.895Z,80.38
2023-01-29T07:55:59.729Z,80.29
2023-01-29T07:58:27.587Z,80.41
2023-01-29T08:00:55.422Z,84.08
2023-01-29T08:03:23.243Z,87.04
2023-01-29T08:05:51.136Z,85.35
2023-01-29T08:08:19.407Z,82.42
2023-01-29T08:10:47.369Z,81.11
2023-01-29T08:13:15.257Z,80.40
2023-01-29T08:15:45.646Z,80.22
2023-01-29T08:18:14.373Z,80.22
2023-01-29T08:20:42.195Z,80.28
2023-01-29T08:23:15.640Z,80.14
2023-01-29T08:25:43.921Z,80.28
2023-01-29T08:28:12.433Z,80.15
2023-01-29T08:30:40.522Z,79.98
2023-01-29T08:33:08.453Z,80.05
2023-01-29T08:35:36.679Z,80.08
2023-01-29T08:38:05.413Z,80.29
2023-01-29T08:40:35.345Z,80.32
2023-01-29T08:43:06.995Z,80.43
2023-01-29T08:45:39.843Z,80.21
2023-01-29T08:48:08.340Z,80.20
2023-01-29T08:50:37.472Z,80.22
2023-01-29T08:53:07.971Z,80.43
2023-01-29T08:55:37.784Z,80.41
2023-01-29T08:58:07.840Z,80.56
2023-01-29T09:00:35.735Z,80.35
2023-01-29T09:03:03.835Z,80.33
2023-01-29T09:05:31.704Z,80.27
2023-01-29T09:07:59.719Z,80.20
2023-01-29T09:10:27.651Z,80.04
2023-01-29T09:12:55.538Z,79.89
2023-01-29T09:15:23.684Z,79.86
2023-01-29T09:17:52.004Z,79.91
2023-01-29T09:20:20.320Z,79.99
2023-01-29T09:22:49.407Z,80.10
2023-01-29T09:25:17.663Z,79.96
2023-01-29T09:27:45.668Z,80.06
2023-01-29T09:30:14.080Z,79.93
2023-01-29T09:32:57.269Z,79.81
2023-01-29T09:35:25.130Z,79.67
2023-01-29T09:37:53.066Z,79.65
2023-01-29T09:40:37.533Z,79.34
2023-01-29T09:43:15.839Z,79.41
2023-01-29T09:45:54.483Z,79.38
2023-01-29T09:48:27.249Z,79.28
2023-01-29T09:50:58.615Z,79.28
2023-01-29T09:53:53.391Z,79.15
2023-01-29T09:56:22.395Z,79.36
2023-01-29T09:58:50.308Z,79.44
2023-01-29T10:01:27.905Z,79.33
2023-01-29T10:04:22.190Z,79.43
2023-01-29T10:07:05.731Z,79.30
2023-01-29T10:09:58.929Z,79.37
2023-01-29T10:12:54.813Z,79.50
2023-01-29T10:15:28.724Z,79.44
2023-01-29T10:18:03.387Z,79.45
2023-01-29T10:20:53.497Z,79.25
2023-01-29T10:23:30.219Z,79.15
2023-01-29T10:25:58.417Z,79.23
2023-01-29T10:28:42.648Z,79.24
2023-01-29T10:31:22.300Z,79.03
2023-01-29T10:34:07.380Z,78.89
2023-01-29T10:36:45.351Z,78.91
2023-01-29T10:39:18.761Z,78.86
2023-01-29T10:42:20.565Z,78.78
2023-01-29T10:45:03.329Z,78.88
2023-01-29T10:48:04.262Z,78.92
2023-01-29T10:50:57.663Z,78.63
2023-01-29T10:54:00.888Z,78.55
2023-01-29T10:56:31.647Z,78.70
2023-01-29T10:59:05.460Z,78.81
2023-01-29T11:01:33.406Z,78.55
2023-01-29T11:04:03.719Z,78.18
2023-01-29T11:06:34.515Z,78.20
2023-01-29T11:09:10.835Z,78.33
2023-01-29T11:11:50.501Z,78.20
2023-01-29T11:14:24.549Z,78.17
2023-01-29T11:16:52.862Z,78.18
2023-01-29T11:19:36.739Z,78.14
2023-01-29T11:22:04.663Z,78.07
2023-01-29T11:24:32.540Z,77.97
2023-01-29T11:27:00.373Z,78.06
2023-01-29T11:29:39.130Z,77.96
2023-01-29T11:32:34.924Z,77.76
2023-01-29T11:35:21.656Z,77.74
2023-01-29T11:37:49.591Z,77.43
2023-01-29T11:40:23.412Z,77.38
2023-01-29T11:42:54.199Z,77.33
2023-01-29T11:45:25.190Z,77.62
2023-01-29T11:47:55.596Z,77.54
2023-01-29T12:03:55.847Z,77.58
2023-01-29T12:06:32.006Z,77.64
2023-01-29T12:09:02.450Z,77.73
2023-01-29T12:11:32.952Z,77.57
2023-01-29T12:14:03.149Z,77.46
2023-01-29T12:16:33.687Z,77.55
2023-01-29T12:19:19.629Z,77.58
2023-01-29T12:21:53.829Z,77.60
2023-01-29T12:24:43.716Z,77.68
2023-01-29T12:27:25.395Z,77.59
2023-01-29T12:30:15.487Z,77.48
2023-01-29T12:32:56.624Z,77.57
2023-01-29T12:35:29.690Z,77.58
2023-01-29T12:38:03.404Z,77.61
2023-01-29T12:40:45.316Z,77.58
2023-01-29T12:43:26.347Z,77.33
2023-01-29T12:45:57.973Z,77.30
2023-01-29T12:48:33.578Z,77.04
2023-01-29T12:51:09.243Z,77.07
2023-01-29T12:53:47.720Z,77.42
2023-01-29T12:56:32.051Z,77.22
2023-01-29T12:59:13.060Z,77.07
2023-01-29T13:01:52.617Z,77.06
2023-01-29T13:04:41.355Z,76.93
2023-01-29T13:07:16.647Z,76.90
2023-01-29T13:09:50.848Z,76.94
2023-01-29T13:12:21.254Z,77.18
2023-01-29T13:14:56.477Z,77.01
2023-01-29T13:17:39.442Z,76.82
2023-01-29T13:20:20.994Z,76.66
2023-01-29T13:22:52.530Z,76.67
2023-01-29T13:25:21.305Z,76.80
2023-01-29T13:27:49.856Z,76.88
2023-01-29T13:30:34.170Z,76.86
2023-01-29T13:33:11.443Z,77.03
2023-01-29T13:35:42.961Z,76.94
2023-01-29T13:38:33.342Z,76.97
2023-01-29T13:41:04.788Z,77.07
2023-01-29T13:43:37.455Z,76.79
2023-01-29T13:46:11.911Z,76.87
2023-01-29T13:48:46.838Z,76.83
2023-01-29T13:51:21.909Z,76.89
2023-01-29T13:53:59.821Z,76.82
2023-01-29T13:56:33.570Z,76.67
2023-01-29T13:59:02.880Z,76.78
2023-01-29T14:01:49.142Z,76.62
2023-01-29T14:04:21.599Z,76.67
2023-01-29T14:06:54.694Z,76.71
2023-01-29T14:09:34.418Z,76.68
2023-01-29T14:12:02.981Z,76.69
2023-01-29T14:14:49.516Z,76.68
2023-01-29T14:17:20.014Z,76.71
2023-01-29T14:19:53.815Z,76.64
2023-01-29T14:22:24.998Z,76.58
2023-01-29T14:25:02.529Z,76.62
2023-01-29T14:27:32.240Z,76.60
2023-01-29T14:30:10.030Z,76.60
2023-01-29T14:32:40.752Z,76.62
2023-01-29T14:35:23.600Z,76.61
2023-01-29T14:37:56.492Z,76.56
2023-01-29T14:40:28.129Z,76.67
2023-01-29T14:43:07.949Z,76.66
2023-01-29T14:45:38.937Z,76.64
2023-01-29T14:48:10.148Z,76.77
2023-01-29T14:50:42.551Z,76.69
2023-01-29T14:53:13.403Z,76.63
2023-01-29T14:55:54.733Z,76.71
2023-01-29T14:58:31.137Z,76.68
2023-01-29T15:01:01.756Z,76.68
2023-01-29T15:03:39.272Z,76.67
2023-01-29T15:06:10.407Z,76.54
2023-01-29T15:08:45.466Z,76.77
2023-01-29T15:11:38.610Z,76.72
2023-01-29T15:14:19.131Z,76.63
2023-01-29T15:17:17.210Z,76.59
2023-01-29T15:19:50.889Z,76.42
2023-01-29T15:22:26.003Z,76.65
2023-01-29T15:25:16.025Z,76.63
2023-01-29T15:27:45.071Z,76.58
2023-01-29T15:30:23.085Z,76.52
2023-01-29T15:32:51.268Z,76.54
2023-01-29T15:35:39.829Z,76.79
2023-01-29T15:38:21.489Z,76.75
2023-01-29T15:40:56.949Z,76.68
2023-01-29T15:43:30.500Z,76.66
2023-01-29T15:46:01.947Z,76.71
2023-01-29T15:48:42.355Z,76.84
2023-01-29T15:51:19.996Z,76.58
2023-01-29T15:54:05.812Z,76.71
2023-01-29T15:56:44.715Z,76.52
2023-01-29T15:59:19.602Z,76.62
2023-01-29T16:01:47.671Z,76.59
2023-01-29T16:04:25.718Z,76.45
2023-01-29T16:06:55.922Z,76.43
2023-01-29T16:09:26.242Z,76.57
2023-01-29T16:11:57.621Z,76.61
2023-01-29T16:14:26.782Z,76.62
2023-01-29T16:16:54.790Z,76.61
2023-01-29T16:19:26.415Z,76.79
2023-01-29T16:22:01.910Z,76.85
2023-01-29T16:24:32.463Z,76.85
2023-01-29T16:27:06.545Z,76.92
2023-01-29T16:29:35.668Z,76.82
2023-01-29T16:32:05.183Z,76.98
2023-01-29T16:34:38.552Z,76.94
2023-01-29T16:37:17.670Z,76.80
2023-01-29T16:39:48.428Z,76.90
2023-01-29T16:42:22.334Z,76.95
2023-01-29T16:45:00.514Z,76.88
2023-01-29T16:47:32.141Z,77.06
2023-01-29T16:50:02.292Z,76.95
2023-01-29T16:52:33.861Z,76.96
2023-01-29T16:55:19.832Z,77.16
2023-01-29T16:57:53.669Z,77.25
2023-01-29T17:00:28.824Z,77.19
2023-01-29T17:03:04.397Z,77.28
2023-01-29T17:05:35.662Z,77.31
2023-01-29T17:08:04.787Z,77.32
2023-01-29T17:10:33.754Z,77.30
2023-01-29T17:13:18.399Z,77.31
2023-01-29T17:15:47.000Z,77.09
2023-01-29T17:18:23.855Z,77.10
2023-01-29T17:20:55.057Z,77.15
2023-01-29T17:23:23.577Z,77.38
2023-01-29T17:25:51.850Z,77.40
2023-01-29T17:28:19.736Z,77.27
2023-01-29T17:31:00.220Z,77.10
2023-01-29T17:33:33.998Z,77.30
2023-01-29T17:36:02.020Z,76.95
2023-01-29T17:38:30.076Z,76.79
2023-01-29T17:41:03.704Z,76.88
2023-01-29T17:43:31.508Z,76.83
2023-01-29T17:45:59.548Z,76.62
2023-01-29T17:48:29.306Z,76.59
2023-01-29T17:51:00.615Z,76.54
2023-01-29T17:53:44.203Z,76.71
2023-01-29T17:56:18.094Z,76.65
2023-01-29T17:58:46.111Z,76.70
2023-01-29T18:01:14.083Z,76.66
2023-01-29T18:03:42.098Z,76.73
2023-01-29T18:06:12.653Z,76.76
2023-01-29T18:08:40.703Z,76.78
2023-01-29T18:11:11.342Z,76.84
2023-01-29T18:13:41.909Z,76.94
2023-01-29T18:16:09.963Z,76.89
2023-01-29T18:18:37.893Z,76.78
2023-01-29T18:21:06.363Z,76.75
2023-01-29T18:23:34.353Z,76.83
2023-01-29T18:26:02.234Z,76.75
2023-01-29T18:28:31.191Z,76.71
2023-01-29T18:31:02.923Z,76.83
2023-01-29T18:33:31.453Z,76.64
2023-01-29T18:35:59.313Z,76.69
2023-01-29T18:38:27.612Z,76.72
2023-01-29T18:41:03.249Z,76.53
2023-01-29T18:43:31.183Z,76.33
2023-01-29T18:45:59.929Z,76.40
2023-01-29T18:48:27.873Z,76.28
2023-01-29T18:50:55.843Z,76.33
2023-01-29T18:53:23.829Z,76.35
2023-01-29T18:56:04.375Z,76.26
2023-01-29T18:58:35.676Z,76.36
2023-01-29T19:01:11.861Z,76.39
2023-01-29T19:03:41.477Z,76.28
2023-01-29T19:06:11.242Z,76.18
2023-01-29T19:08:40.734Z,76.28
2023-01-29T19:11:09.083Z,76.32
2023-01-29T19:13:38.183Z,76.25
2023-01-29T19:16:09.056Z,76.36
2023-01-29T19:18:37.042Z,76.50
2023-01-29T19:21:10.619Z,76.43
2023-01-29T19:23:39.080Z,76.36
2023-01-29T19:26:07.063Z,76.24
2023-01-29T19:28:35.813Z,76.32
2023-01-29T19:31:03.938Z,76.22
2023-01-29T19:33:32.200Z,76.14
2023-01-29T19:36:00.215Z,76.09
2023-01-29T19:38:28.671Z,76.16
2023-01-29T19:40:59.027Z,76.09
2023-01-29T19:43:30.857Z,76.12
2023-01-29T19:46:01.012Z,76.33
2023-01-29T19:48:29.474Z,76.10
2023-01-29T19:50:59.530Z,76.23
2023-01-29T19:53:28.927Z,76.14
2023-01-29T19:56:03.881Z,76.06
2023-01-29T19:58:33.164Z,76.12
2023-01-29T20:01:07.384Z,76.06
2023-01-29T20:03:35.465Z,75.81
2023-01-29T20:06:05.331Z,75.88
2023-01-29T20:08:34.191Z,75.85
2023-01-29T20:11:02.979Z,75.87
2023-01-29T20:13:32.453Z,75.87
2023-01-29T20:16:05.333Z,75.83
2023-01-29T20:18:33.843Z,75.70
2023-01-29T20:21:07.015Z,75.66
2023-01-29T20:23:38.416Z,75.85
2023-01-29T20:26:14.111Z,75.85
2023-01-29T20:28:43.253Z,75.85
2023-01-29T20:31:11.295Z,75.78
2023-01-29T20:33:40.427Z,75.83
2023-01-29T20:36:11.051Z,75.88
2023-01-29T20:38:39.040Z,75.75
2023-01-29T20:41:09.642Z,75.73
2023-01-29T20:43:37.622Z,75.77
2023-01-29T20:46:06.083Z,75.91
2023-01-29T20:48:34.109Z,75.82
2023-01-29T20:51:09.366Z,75.74
2023-01-29T20:53:37.424Z,75.76
2023-01-29T20:56:05.955Z,75.84
2023-01-29T20:58:34.047Z,76.00
2023-01-29T21:01:06.764Z,75.82
2023-01-29T21:03:34.704Z,76.03
2023-01-29T21:06:02.603Z,76.07
2023-01-29T21:08:30.570Z,75.96
2023-01-29T21:10:58.603Z,75.89
2023-01-29T21:13:26.571Z,75.95
2023-01-29T21:15:54.451Z,76.05
2023-01-29T21:18:22.634Z,76.09
2023-01-29T21:20:50.590Z,76.02
2023-01-29T21:23:19.121Z,75.85
2023-01-29T21:25:48.159Z,76.13
2023-01-29T21:28:16.759Z,75.96
2023-01-29T21:30:45.291Z,75.98
2023-01-29T21:33:13.328Z,76.04
2023-01-29T21:35:41.189Z,76.00
2023-01-29T21:38:09.342Z,76.09
2023-01-29T21:40:37.234Z,76.16
2023-01-29T21:43:15.447Z,76.15
2023-01-29T21:45:43.829Z,76.06
2023-01-29T21:48:11.855Z,76.07
2023-01-29T21:50:39.786Z,76.06
2023-01-29T21:53:07.903Z,76.07
2023-01-29T21:55:35.786Z,76.17
2023-01-29T21:58:04.414Z,76.00
2023-01-29T22:00:32.849Z,75.93
2023-01-29T22:03:00.899Z,75.84
2023-01-29T22:05:31.424Z,75.83
2023-01-29T22:07:59.293Z,75.74
2023-01-29T22:10:28.631Z,75.69
2023-01-29T22:12:56.725Z,75.61
2023-01-29T22:15:24.576Z,75.63
2023-01-29T22:17:52.545Z,75.68
2023-01-29T22:20:20.886Z,75.84
2023-01-29T22:22:48.838Z,75.75
2023-01-29T22:25:20.077Z,75.77
2023-01-29T22:27:48.275Z,75.62
2023-01-29T22:30:16.846Z,75.52
2023-01-29T22:32:45.016Z,75.55
2023-01-29T22:35:12.838Z,75.57
2023-01-29T22:37:40.844Z,75.51
2023-01-29T22:40:09.804Z,75.50
2023-01-29T22:42:37.754Z,75.58
2023-01-29T22:45:06.082Z,75.53
2023-01-29T22:47:34.024Z,75.60
2023-01-29T22:50:02.536Z,75.68
2023-01-29T22:52:38.332Z,75.57
2023-01-29T22:55:08.123Z,75.54
2023-01-29T22:57:37.153Z,75.64
2023-01-29T23:00:08.134Z,75.72
2023-01-29T23:02:36.552Z,75.71
2023-01-29T23:05:04.937Z,75.74
2023-01-29T23:07:33.176Z,75.78
2023-01-29T23:10:01.032Z,75.78
2023-01-29T23:12:29.307Z,75.73
2023-01-29T23:14:57.316Z,75.64
2023-01-29T23:17:25.175Z,75.58
2023-01-29T23:19:53.036Z,75.51
2023-01-29T23:22:21.092Z,75.52
2023-01-29T23:24:48.951Z,75.48
2023-01-29T23:27:16.932Z,75.44
2023-01-29T23:29:47.231Z,75.53
2023-01-29T23:32:18.472Z,75.55
2023-01-29T23:34:46.372Z,75.55
2023-01-29T23:37:14.411Z,75.60
2023-01-29T23:39:42.307Z,75.68
2023-01-29T23:42:10.231Z,75.76
2023-01-29T23:44:38.183Z,75.80
2023-01-29T23:47:06.421Z,75.59
2023-01-29T23:49:34.714Z,75.61
2023-01-29T23:52:03.183Z,75.68
2023-01-29T23:54:31.025Z,75.72
2023-01-29T23:56:58.950Z,75.74
2023-01-29T23:59:28.845Z,75.87
